Terminal Aerodrome Forecast
Issued by NWS

Home | Current Version | Previous Version | Graphics & Text | Print | Product List | Glossary On
Versions: 1 2 3 4 5 6 7 8 9 10 11 12 13 14 15 16 17 18 19 20 21 22 23 24
000
FTUS41 KCLE 301730
TAFFDY
TAF
KFDY 301730Z 3018/3118 24010KT P6SM VCTS BKN045CB
      TEMPO 3018/3021 2SM -TSRA OVC025CB
     FM302300 33011KT 6SM -SHRA OVC035
     FM310400 02014KT 5SM -SHRA BR OVC015
     FM310900 04014KT 3SM -SHRA OVC005
     FM311500 04014KT P6SM VCSH OVC015=

USA.gov is the U.S. government's official web portal to all federal, state and local government web resources and services.